createdAt,value
2022-10-17T00:03:58.949Z,8.52
2022-10-17T00:08:57.810Z,9.45
2022-10-17T00:13:57.228Z,8.90
2022-10-17T00:18:56.192Z,8.43
2022-10-17T00:23:58.025Z,9.23
2022-10-17T00:28:59.970Z,7.88
2022-10-17T00:33:58.508Z,6.07
2022-10-17T00:39:02.218Z,7.03
2022-10-17T00:44:25.300Z,6.10
2022-10-17T00:49:52.322Z,5.78
2022-10-17T00:55:08.900Z,5.57
2022-10-17T01:00:34.544Z,5.55
2022-10-17T01:05:58.721Z,5.13
2022-10-17T01:11:29.901Z,4.68
2022-10-17T01:17:00.812Z,4.20
2022-10-17T01:22:45.483Z,5.13
2022-10-17T01:28:04.077Z,5.07
2022-10-17T01:33:14.322Z,5.30
2022-10-17T01:38:33.635Z,6.03
2022-10-17T01:43:56.628Z,6.55
2022-10-17T01:48:57.013Z,7.20
2022-10-17T01:54:17.850Z,7.55
2022-10-17T01:59:30.655Z,7.22
2022-10-17T02:04:29.159Z,8.10
2022-10-17T02:09:30.568Z,7.85
2022-10-17T02:14:44.216Z,8.45
2022-10-17T02:20:05.612Z,7.32
2022-10-17T02:25:14.448Z,7.40
2022-10-17T02:30:16.879Z,7.80
2022-10-17T02:35:16.053Z,7.25
2022-10-17T02:40:15.838Z,7.18
2022-10-17T02:45:14.497Z,8.77
2022-10-17T02:50:13.676Z,7.78
2022-10-17T02:55:28.320Z,7.43
2022-10-17T03:00:28.557Z,7.82
2022-10-17T03:05:29.766Z,7.15
2022-10-17T03:10:28.346Z,8.00
2022-10-17T03:15:29.573Z,6.47
2022-10-17T03:20:28.265Z,7.20
2022-10-17T03:25:26.684Z,7.45
2022-10-17T03:30:30.530Z,7.32
2022-10-17T03:35:31.160Z,7.80
2022-10-17T03:40:37.108Z,7.60
2022-10-17T03:45:39.031Z,7.25
2022-10-17T03:50:38.933Z,7.32
2022-10-17T03:55:39.200Z,7.97
2022-10-17T04:00:43.237Z,7.70
2022-10-17T04:10:42.480Z,7.82
2022-10-17T04:15:55.550Z,7.70
2022-10-17T04:20:54.225Z,7.40
2022-10-17T04:25:59.318Z,6.72
2022-10-17T04:31:05.073Z,6.38
2022-10-17T04:36:16.003Z,6.78
2022-10-17T04:41:16.420Z,6.85
2022-10-17T04:46:16.428Z,8.63
2022-10-17T04:51:26.505Z,8.95
2022-10-17T04:56:45.267Z,7.57
2022-10-17T05:01:43.913Z,7.18
2022-10-17T05:06:42.507Z,7.90
2022-10-17T05:12:13.419Z,10.48
2022-10-17T05:17:14.958Z,9.35
2022-10-17T05:22:14.607Z,8.00
2022-10-17T05:27:15.022Z,8.57
2022-10-17T05:32:15.863Z,9.82
2022-10-17T05:37:16.846Z,9.77
2022-10-17T05:42:28.432Z,9.15
2022-10-17T05:47:32.370Z,9.35
2022-10-17T05:52:33.505Z,10.77
2022-10-17T05:58:03.048Z,10.13
2022-10-17T06:03:16.819Z,9.05
2022-10-17T06:08:17.305Z,10.07
2022-10-17T06:13:17.099Z,9.88
2022-10-17T06:18:19.311Z,11.52
2022-10-17T06:23:19.201Z,10.98
2022-10-17T06:28:32.676Z,12.32
2022-10-17T06:33:33.834Z,12.05
2022-10-17T06:38:37.130Z,11.57
2022-10-17T06:43:42.458Z,10.63
2022-10-17T06:49:17.405Z,11.20
2022-10-17T06:54:35.022Z,14.65
2022-10-17T06:59:58.790Z,11.73
2022-10-17T07:05:09.224Z,10.27
2022-10-17T07:10:12.234Z,9.90
2022-10-17T07:15:14.170Z,11.45
2022-10-17T07:20:15.090Z,12.13
2022-10-17T07:25:13.170Z,11.77
2022-10-17T07:30:20.787Z,11.27
2022-10-17T07:35:25.752Z,12.18
2022-10-17T07:40:28.377Z,12.57
2022-10-17T07:45:27.978Z,12.38
2022-10-17T07:50:27.891Z,11.32
2022-10-17T07:55:29.017Z,10.70
2022-10-17T08:00:30.423Z,11.32
2022-10-17T08:05:33.345Z,10.35
2022-10-17T08:10:32.398Z,11.23
2022-10-17T08:15:32.341Z,11.50
2022-10-17T08:20:33.445Z,13.38
2022-10-17T08:25:35.246Z,12.38
2022-10-17T08:30:35.385Z,13.13
2022-10-17T08:35:34.592Z,13.75
2022-10-17T08:40:36.740Z,12.23
2022-10-17T08:45:47.493Z,13.18
2022-10-17T08:50:51.170Z,11.63
2022-10-17T08:55:53.670Z,11.27
2022-10-17T09:00:59.901Z,9.48
2022-10-17T09:06:22.879Z,8.55
2022-10-17T09:11:39.842Z,8.75
2022-10-17T09:17:03.083Z,6.10
2022-10-17T09:22:15.460Z,3.67
2022-10-17T09:27:35.151Z,5.40
2022-10-17T09:32:44.224Z,4.38
2022-10-17T09:37:42.752Z,5.22
2022-10-17T09:42:47.453Z,3.75
2022-10-17T09:48:09.273Z,2.83
2022-10-17T09:53:42.010Z,2.78
2022-10-17T09:58:46.499Z,3.55
2022-10-17T10:03:45.837Z,3.58
2022-10-17T10:08:55.471Z,2.53
2022-10-17T10:13:55.065Z,3.70
2022-10-17T10:18:56.150Z,2.70
2022-10-17T10:24:30.326Z,3.15
2022-10-17T10:29:41.842Z,2.53
2022-10-17T10:34:51.100Z,3.92
2022-10-17T10:40:04.034Z,3.08
2022-10-17T10:50:47.535Z,2.88
2022-10-17T10:55:55.229Z,3.33
2022-10-17T11:00:54.695Z,2.83
2022-10-17T11:06:23.962Z,3.55
2022-10-17T11:11:39.426Z,3.83
2022-10-17T11:17:08.956Z,3.50
2022-10-17T11:22:17.483Z,2.80
2022-10-17T11:27:15.293Z,3.28
2022-10-17T11:32:23.633Z,3.00
2022-10-17T11:37:25.998Z,2.35
2022-10-17T11:42:31.163Z,2.85
2022-10-17T11:47:38.203Z,3.33
2022-10-17T11:52:55.462Z,2.97
2022-10-17T11:58:09.651Z,5.30
2022-10-17T12:03:46.100Z,3.05
2022-10-17T12:08:52.546Z,3.22
2022-10-17T12:13:57.227Z,2.50
2022-10-17T12:19:03.797Z,2.25
2022-10-17T12:24:02.147Z,1.80
2022-10-17T12:29:00.603Z,2.03
2022-10-17T12:34:19.800Z,1.48
2022-10-17T12:39:20.435Z,1.77
2022-10-17T12:44:21.895Z,1.90
2022-10-17T12:49:22.374Z,2.03
2022-10-17T12:54:26.080Z,1.73
2022-10-17T12:59:29.061Z,1.77
2022-10-17T13:04:27.308Z,2.57
2022-10-17T13:09:30.805Z,1.95
2022-10-17T13:14:31.311Z,2.40
2022-10-17T13:19:44.241Z,1.70
2022-10-17T13:24:44.038Z,2.30
2022-10-17T13:29:44.836Z,1.83
2022-10-17T13:34:45.041Z,2.13
2022-10-17T13:40:00.320Z,2.20
2022-10-17T13:50:43.060Z,2.28
2022-10-17T13:56:26.230Z,1.95
2022-10-17T14:01:24.710Z,2.08
2022-10-17T14:06:26.386Z,12.35
2022-10-17T14:11:38.508Z,2.05
2022-10-17T14:16:41.359Z,5.13
2022-10-17T14:21:44.506Z,3.20
2022-10-17T14:26:51.045Z,6.60
2022-10-17T14:32:04.732Z,2.83
2022-10-17T14:37:14.018Z,3.42
2022-10-17T14:42:25.453Z,3.25
2022-10-17T14:47:43.264Z,3.58
2022-10-17T14:53:24.680Z,5.35
2022-10-17T14:58:32.332Z,6.45
2022-10-17T15:03:33.600Z,5.28
2022-10-17T15:08:34.455Z,3.55
2022-10-17T15:13:39.223Z,10.95
2022-10-17T15:18:48.960Z,31.63
2022-10-17T15:23:52.869Z,9.90
2022-10-17T15:34:05.702Z,5.60
2022-10-17T15:39:05.554Z,7.13
2022-10-17T15:44:06.786Z,6.95
2022-10-17T15:49:15.267Z,9.73
2022-10-17T15:54:15.867Z,8.40
2022-10-17T15:59:24.525Z,9.43
2022-10-17T16:04:28.487Z,11.60
2022-10-17T16:14:34.889Z,8.70
2022-10-17T16:19:36.260Z,9.35
2022-10-17T16:24:39.091Z,9.98
2022-10-17T16:29:47.648Z,13.43
2022-10-17T16:34:48.895Z,13.00
2022-10-17T16:40:01.617Z,15.95
2022-10-17T16:45:52.708Z,14.48
2022-10-17T16:50:56.374Z,13.52
2022-10-17T16:56:10.128Z,12.65
2022-10-17T17:01:21.959Z,14.60
2022-10-17T17:11:51.924Z,15.43
2022-10-17T17:16:59.917Z,13.80
2022-10-17T17:22:05.608Z,12.15
2022-10-17T17:27:33.079Z,17.13
2022-10-17T17:38:37.359Z,14.18
2022-10-17T17:43:37.862Z,16.23
2022-10-17T17:48:44.608Z,14.57
2022-10-17T17:54:39.992Z,14.95
2022-10-17T17:59:50.708Z,13.13
2022-10-17T18:05:17.177Z,13.48
2022-10-17T18:10:33.910Z,11.93
2022-10-17T18:15:36.232Z,12.95
2022-10-17T18:20:51.392Z,13.95
2022-10-17T18:26:02.597Z,12.60
2022-10-17T18:31:46.038Z,14.80
2022-10-17T18:36:48.723Z,14.20
2022-10-17T18:42:02.304Z,15.15
2022-10-17T18:47:15.341Z,14.98
2022-10-17T18:52:25.723Z,13.20
2022-10-17T18:57:27.886Z,13.45
2022-10-17T19:02:32.137Z,15.82
2022-10-17T19:07:37.182Z,15.65
2022-10-17T19:12:37.647Z,15.18
2022-10-17T19:17:36.776Z,13.68
2022-10-17T19:22:37.210Z,14.63
2022-10-17T19:27:42.041Z,16.15
2022-10-17T19:32:44.428Z,15.40
2022-10-17T19:37:48.365Z,15.63
2022-10-17T19:42:48.389Z,14.60
2022-10-17T19:47:54.781Z,16.30
2022-10-17T19:53:00.162Z,14.60
2022-10-17T19:58:01.491Z,17.05
2022-10-17T20:03:20.561Z,13.63
2022-10-17T20:08:29.614Z,13.27
2022-10-17T20:13:29.995Z,11.88
2022-10-17T20:18:32.299Z,12.20
2022-10-17T20:23:30.323Z,11.43
2022-10-17T20:28:33.753Z,13.63
2022-10-17T20:33:32.188Z,15.95
2022-10-17T20:38:30.176Z,15.23
2022-10-17T20:43:28.357Z,14.50
2022-10-17T20:48:26.782Z,14.10
2022-10-17T20:53:35.974Z,15.82
2022-10-17T20:58:36.110Z,18.08
2022-10-17T21:03:42.342Z,18.33
2022-10-17T21:08:48.665Z,17.95
2022-10-17T21:13:49.710Z,18.88
2022-10-17T21:18:51.512Z,19.83
2022-10-17T21:23:52.691Z,19.35
2022-10-17T21:28:51.851Z,19.25
2022-10-17T21:33:56.478Z,14.20
2022-10-17T21:38:56.742Z,10.30
2022-10-17T21:44:07.837Z,11.65
2022-10-17T21:49:11.097Z,12.25
2022-10-17T21:54:12.024Z,10.60
2022-10-17T21:59:15.341Z,7.68
2022-10-17T22:04:18.482Z,5.88
2022-10-17T22:09:23.741Z,6.10
2022-10-17T22:14:24.997Z,6.63
2022-10-17T22:19:26.539Z,6.38
2022-10-17T22:24:28.597Z,6.40
2022-10-17T22:29:28.287Z,6.00
2022-10-17T22:34:32.486Z,6.50
2022-10-17T22:39:33.558Z,5.50
2022-10-17T22:44:33.613Z,5.80
2022-10-17T22:49:45.058Z,5.63
2022-10-17T22:54:53.244Z,5.60
2022-10-17T23:00:05.943Z,6.53
2022-10-17T23:05:10.670Z,6.97
2022-10-17T23:10:13.523Z,6.88
2022-10-17T23:15:12.420Z,7.28
2022-10-17T23:20:12.633Z,8.50
2022-10-17T23:25:14.397Z,8.05
2022-10-17T23:30:16.648Z,8.10
2022-10-17T23:35:19.580Z,8.40
2022-10-17T23:40:22.015Z,7.95
2022-10-17T23:45:24.294Z,8.90
2022-10-17T23:50:25.965Z,7.68
2022-10-17T23:55:27.139Z,7.68
